Time;durP1;ratioP1;P1;durP2;ratioP2;P2;SDS_P1;SDS_P2;PMS_P1;PMS_P2;Temp;Humidity;BMP_temperature;BMP_pressure;BME280_temperature;BME280_humidity;BME280_pressure;Samples;Min_cycle;Max_cycle;Signal;HPM_P1;HPM_P2
2021/09/14 00:01:20;;;;;;;1.60;1.30;;;23.10;53.30;;;27.33;35.28;101631.53;5154002;27;20133;-10
2021/09/14 00:03:45;;;;;;;2.35;1.20;;;23.10;53.30;;;27.31;35.17;101628.09;5154036;27;20077;-10
2021/09/14 00:06:12;;;;;;;2.03;1.33;;;23.10;53.30;;;27.30;35.16;101626.41;5153909;27;20075;-10
2021/09/14 00:08:39;;;;;;;2.25;1.13;;;23.10;53.30;;;27.29;35.36;101624.69;5153878;27;20045;-11
2021/09/14 00:11:04;;;;;;;2.35;1.17;;;23.10;53.30;;;27.28;35.10;101620.25;5153916;27;20046;-11
2021/09/14 00:13:31;;;;;;;2.50;1.30;;;23.10;53.40;;;27.27;35.38;101619.41;5153877;27;20047;-10
2021/09/14 00:15:56;;;;;;;1.50;1.10;;;23.10;53.40;;;27.26;35.35;101617.69;5153941;27;20043;-11
2021/09/14 00:18:22;;;;;;;1.60;1.30;;;23.10;53.40;;;27.26;35.33;101620.38;5153967;27;20055;-11
2021/09/14 00:20:48;;;;;;;2.40;1.30;;;23.10;53.40;;;27.28;35.41;101621.13;5153754;27;20039;-11
2021/09/14 00:23:14;;;;;;;1.33;1.10;;;23.10;53.40;;;27.26;35.16;101622.19;5133471;27;20047;-10
2021/09/14 00:25:39;;;;;;;1.80;1.33;;;23.00;53.30;;;27.28;35.05;101625.63;5153684;27;20054;-11
2021/09/14 00:28:05;;;;;;;2.80;1.70;;;23.10;53.40;;;27.27;35.21;101622.09;5153543;27;20062;-11
2021/09/14 00:30:31;;;;;;;1.90;1.20;;;23.10;53.40;;;27.29;35.20;101630.91;5153626;27;20069;-10
2021/09/14 00:32:57;;;;;;;3.78;1.20;;;23.00;53.30;;;27.28;35.46;101622.94;5135269;27;20108;-10
2021/09/14 00:35:24;;;;;;;2.40;1.13;;;23.00;53.30;;;27.26;35.49;101623.03;5153662;27;20118;-10
2021/09/14 00:37:50;;;;;;;1.45;1.00;;;23.10;53.40;;;27.26;35.43;101631.09;5134980;27;20043;-11
2021/09/14 00:40:15;;;;;;;2.58;1.40;;;23.00;53.30;;;27.26;35.27;101623.03;5154245;27;20050;-10
2021/09/14 00:42:41;;;;;;;2.05;1.25;;;23.00;53.30;;;27.28;35.48;101629.19;5135566;27;20126;-10
2021/09/14 00:45:08;;;;;;;2.35;1.25;;;23.00;53.30;;;27.24;35.31;101625.00;5153587;27;20431;-10
2021/09/14 00:47:33;;;;;;;1.58;1.15;;;23.10;53.40;;;27.25;35.21;101624.03;5134731;27;20083;-11
2021/09/14 00:50:00;;;;;;;2.85;1.40;;;23.00;53.30;;;27.26;35.25;101624.88;5153253;27;20047;-10
2021/09/14 00:52:28;;;;;;;2.20;1.50;;;23.10;53.40;;;27.25;35.18;101621.34;5153359;27;20058;-11
2021/09/14 00:54:54;;;;;;;2.17;1.55;;;23.00;53.30;;;27.24;35.32;101619.63;5156240;27;20047;-11
2021/09/14 00:57:20;;;;;;;2.17;1.35;;;23.00;53.30;;;27.25;35.31;101618.66;5138186;27;20050;-11
2021/09/14 00:59:46;;;;;;;1.40;1.10;;;23.00;53.30;;;27.25;35.27;101615.09;5156897;27;20053;-11
2021/09/14 01:02:12;;;;;;;1.50;1.25;;;23.00;53.40;;;27.25;35.36;101617.78;5138250;27;20074;-10
2021/09/14 01:04:37;;;;;;;1.70;1.20;;;23.00;53.40;;;27.24;35.24;101616.09;5157162;27;20039;-11
2021/09/14 01:07:04;;;;;;;2.25;1.30;;;23.00;53.30;;;27.26;35.17;101620.38;5123077;27;20465;-10
2021/09/14 01:09:32;;;;;;;2.00;1.40;;;23.10;53.40;;;27.23;35.28;101615.25;5156815;27;20043;-11
2021/09/14 01:11:59;;;;;;;1.90;1.13;;;23.00;53.40;;;27.21;35.33;101614.50;5138361;27;20058;-11
2021/09/14 01:14:24;;;;;;;1.58;1.10;;;23.00;53.40;;;27.25;35.39;101617.78;5156783;27;20035;-10
2021/09/14 01:16:50;;;;;;;2.03;1.27;;;23.00;53.40;;;27.24;35.13;101608.03;5138062;27;20049;-11
2021/09/14 01:19:17;;;;;;;1.80;1.30;;;23.00;53.40;;;27.23;35.38;101611.69;5137999;27;20054;-11
2021/09/14 01:21:43;;;;;;;1.95;1.30;;;23.00;53.40;;;27.23;35.39;101609.88;5137953;27;20046;-10
2021/09/14 01:24:09;;;;;;;1.83;1.50;;;23.00;53.40;;;27.22;35.33;101602.78;5137982;27;20397;-11
2021/09/14 01:26:42;;;;;;;1.25;1.10;;;23.00;53.30;;;27.25;35.19;101610.63;5135551;27;20135;-11
2021/09/14 01:30:12;;;;;;;2.55;1.17;;;23.00;53.30;;;27.23;35.45;101612.56;5137733;27;20543;-11
2021/09/14 01:32:06;;;;;;;1.98;1.30;;;23.00;53.40;;;27.22;35.12;101610.84;5137658;27;20043;-11
2021/09/14 01:34:33;;;;;;;2.40;1.40;;;23.00;53.30;;;27.25;35.47;101615.09;5137612;27;20046;-10
2021/09/14 01:36:59;;;;;;;1.75;1.30;;;23.00;53.30;;;27.21;35.25;101614.50;5137623;27;20051;-11
2021/09/14 01:39:25;;;;;;;1.60;1.30;;;23.00;53.40;;;27.23;35.44;101609.00;5137783;27;20054;-11
2021/09/14 01:41:53;;;;;;;1.70;1.48;;;23.00;53.40;;;27.22;35.19;101618.91;5137953;27;20390;-11
2021/09/14 01:44:19;;;;;;;3.13;1.70;;;23.00;53.40;;;27.21;35.40;101611.81;5137531;27;20059;-11
2021/09/14 01:46:45;;;;;;;2.35;1.42;;;23.00;53.40;;;27.18;35.25;101612.91;5136315;27;20068;-11
2021/09/14 01:49:12;;;;;;;2.15;1.23;;;23.00;53.40;;;27.21;35.26;101611.81;5137806;27;20452;-11
2021/09/14 01:51:37;;;;;;;2.22;1.52;;;23.00;53.40;;;27.21;35.30;101613.66;5137666;27;20045;-11
2021/09/14 01:54:04;;;;;;;2.00;1.40;;;23.00;53.40;;;27.19;35.11;101616.44;5120368;27;20042;-11
2021/09/14 01:56:30;;;;;;;2.05;1.20;;;23.00;53.40;;;27.21;35.27;101617.19;5138060;27;20398;-11
2021/09/14 01:58:56;;;;;;;1.60;1.40;;;23.00;53.40;;;27.21;35.51;101609.13;5155923;27;20050;-10
2021/09/14 02:01:35;;;;;;;1.63;1.35;;;23.00;53.40;;;27.21;35.25;101605.59;5136987;27;20046;-11
2021/09/14 02:04:09;;;;;;;2.20;1.50;;;23.00;53.40;;;27.20;35.36;101601.19;5137920;27;20432;-11
2021/09/14 02:07:08;;;;;;;1.83;1.13;;;23.00;53.40;;;27.17;35.18;101597.78;5137519;27;20100;-10
2021/09/14 02:56:40;;;;;;;1.52;1.20;;;22.90;53.30;;;27.12;35.51;101585.69;5137012;27;20047;-11
2021/09/14 02:59:06;;;;;;;2.00;1.50;;;22.90;53.30;;;27.15;35.11;101588.16;5155326;27;20423;-11
2021/09/14 03:01:31;;;;;;;2.42;1.30;;;22.90;53.30;;;27.13;35.34;101588.25;5154840;27;20050;-11
2021/09/14 03:03:58;;;;;;;1.58;1.30;;;22.90;53.30;;;27.15;35.44;101588.16;5136311;27;20053;-11
2021/09/14 03:06:24;;;;;;;3.00;1.73;;;22.90;53.30;;;27.12;35.52;101585.69;5154725;27;20098;-10
2021/09/14 03:08:53;;;;;;;2.03;1.20;;;22.90;53.30;;;27.13;35.32;101580.22;5135422;27;20047;-11
2021/09/14 03:11:22;;;;;;;3.78;1.70;;;23.00;53.40;;;27.12;35.37;101588.38;5136253;27;20098;-11
2021/09/14 03:13:58;;;;;;;2.22;1.40;;;22.90;53.30;;;27.15;35.21;101590.81;5136310;27;20035;-11
2021/09/14 03:16:24;;;;;;;1.60;1.50;;;22.90;53.30;;;27.13;35.14;101585.56;5135518;27;20095;-10
2021/09/14 03:18:50;;;;;;;1.65;1.30;;;22.90;53.30;;;27.13;35.33;101590.06;5136100;27;20432;-11
2021/09/14 03:21:16;;;;;;;1.52;1.20;;;22.90;53.40;;;27.12;35.33;101589.22;5136600;27;20043;-11
2021/09/14 03:23:43;;;;;;;1.90;1.50;;;22.90;53.40;;;27.12;35.16;101589.22;5136000;27;20049;-10
2021/09/14 03:26:11;;;;;;;1.80;1.40;;;22.90;53.90;;;27.13;35.25;101584.69;5134892;27;20054;-11
2021/09/14 03:28:38;;;;;;;1.88;1.50;;;22.90;53.30;;;27.12;35.20;101586.53;5135936;27;20053;-11
2021/09/14 03:31:05;;;;;;;2.00;1.60;;;22.90;53.30;;;27.13;35.08;101582.88;5135751;27;20038;-11
2021/09/14 03:33:32;;;;;;;1.48;1.38;;;22.90;53.30;;;27.13;35.18;101582.88;5136510;27;20047;-11
2021/09/14 03:35:58;;;;;;;2.47;1.52;;;22.90;53.30;;;27.12;35.25;101575.78;5154485;27;20050;-11
2021/09/14 03:38:23;;;;;;;2.63;1.52;;;22.90;53.30;;;27.15;35.28;101582.78;5134149;27;20490;-11
2021/09/14 03:40:49;;;;;;;1.73;1.17;;;22.90;53.30;;;27.15;35.48;101588.16;5154165;27;20134;-11
2021/09/14 03:43:17;;;;;;;2.92;1.40;;;22.90;53.30;;;27.12;35.11;101581.16;5134749;27;20051;-11
2021/09/14 03:45:46;;;;;;;1.90;1.20;;;22.90;53.30;;;27.13;35.37;101585.56;5134301;27;20039;-10
2021/09/14 03:48:15;;;;;;;1.75;1.27;;;22.90;53.30;;;27.14;35.37;101586.41;5134653;27;20051;-11
2021/09/14 03:50:43;;;;;;;1.95;1.48;;;22.90;53.30;;;27.10;35.31;101571.53;5133672;27;20073;-11
2021/09/14 03:53:09;;;;;;;1.60;1.30;;;22.90;53.30;;;27.12;35.26;101578.47;5135770;27;20053;-11
2021/09/14 03:55:35;;;;;;;2.00;1.30;;;22.90;53.30;;;27.12;35.49;101580.31;5154027;27;20141;-10
2021/09/14 03:58:01;;;;;;;2.08;1.67;;;22.90;53.30;;;27.12;35.38;101581.16;5119030;27;20138;-11
2021/09/14 04:00:27;;;;;;;1.75;1.27;;;22.90;53.30;;;27.13;35.36;101576.66;5153935;27;20046;-11
2021/09/14 04:03:17;;;;;;;2.17;1.67;;;22.90;53.30;;;27.14;35.18;101584.59;5134352;27;20100;-10
2021/09/14 04:05:59;;;;;;;1.70;1.40;;;22.90;53.30;;;27.12;35.31;101578.47;5135208;27;20050;-11
2021/09/14 04:11:11;;;;;;;2.65;1.75;;;22.90;53.30;;;27.10;35.33;101575.06;5136097;27;20390;-11
2021/09/14 04:13:38;;;;;;;2.45;1.58;;;22.90;53.30;;;27.11;35.18;101582.13;5135714;27;20047;-11
2021/09/14 04:16:04;;;;;;;2.20;1.30;;;22.90;53.30;;;27.10;35.32;101583.13;5118216;27;20475;-11
2021/09/14 04:18:33;;;;;;;2.05;1.30;;;22.90;53.30;;;27.11;35.48;101578.59;5134708;27;20051;-10
2021/09/14 04:20:58;;;;;;;2.20;1.40;;;22.90;53.30;;;27.11;35.37;101576.75;5134963;27;20057;-11
2021/09/14 04:23:24;;;;;;;2.10;1.65;;;22.90;53.30;;;27.09;35.25;101573.34;5153807;27;20051;-11
2021/09/14 04:25:50;;;;;;;2.42;1.55;;;22.90;53.30;;;27.12;35.38;101585.69;5133174;27;20043;-11
2021/09/14 04:28:16;;;;;;;2.00;1.77;;;22.90;53.30;;;27.09;35.52;101581.41;5119905;27;20062;-11
2021/09/14 04:30:42;;;;;;;1.88;1.55;;;22.90;53.30;;;27.10;35.36;101583.13;5157319;27;20054;-11
2021/09/14 04:33:08;;;;;;;1.77;1.58;;;22.90;53.30;;;27.09;35.33;101575.19;5136534;27;20051;-11
2021/09/14 04:35:36;;;;;;;2.08;1.50;;;22.90;53.30;;;27.09;35.27;101584.09;5139005;27;20051;-11
2021/09/14 04:38:03;;;;;;;1.85;1.40;;;22.90;53.30;;;27.11;35.41;101590.19;5157278;27;20074;-10
2021/09/14 04:40:30;;;;;;;2.20;1.42;;;22.90;53.30;;;27.11;35.10;101592.88;5138561;27;20087;-11
2021/09/14 04:42:56;;;;;;;1.67;1.30;;;22.90;53.30;;;27.11;35.37;101581.28;5136925;27;20050;-10
2021/09/14 04:45:22;;;;;;;2.55;1.50;;;22.90;53.30;;;27.13;35.17;101587.38;5138533;27;20042;-11
2021/09/14 04:47:48;;;;;;;2.22;1.40;;;22.90;53.30;;;27.11;35.18;101575.91;5157129;27;20478;-11
2021/09/14 04:50:14;;;;;;;2.45;1.67;;;22.90;53.30;;;27.11;35.39;101576.75;5139109;27;20046;-11
2021/09/14 04:52:41;;;;;;;1.75;1.38;;;22.90;53.30;;;27.10;35.43;101583.13;5138511;27;20073;-11
2021/09/14 04:55:07;;;;;;;1.63;1.45;;;22.90;53.30;;;27.07;35.36;101561.88;5138275;27;20095;-11
2021/09/14 04:57:33;;;;;;;2.53;1.42;;;22.90;53.30;;;27.09;35.25;101562.59;5156937;27;20058;-11
2021/09/14 04:59:59;;;;;;;2.70;1.70;;;22.90;53.30;;;27.08;35.26;101568.09;5156976;27;20078;-11
2021/09/14 05:02:25;;;;;;;2.38;1.48;;;22.90;53.30;;;27.10;35.31;101568.84;5121747;27;20049;-11
2021/09/14 05:04:51;;;;;;;2.05;1.35;;;22.90;53.30;;;27.09;35.27;101573.34;5138812;27;20137;-11
2021/09/14 05:07:17;;;;;;;2.95;1.25;;;22.90;53.30;;;27.11;35.10;101570.53;5136887;27;20103;-11
2021/09/14 05:09:43;;;;;;;1.52;1.42;;;22.90;53.20;;;27.11;35.02;101574.06;5138463;27;20050;-10
2021/09/14 05:12:09;;;;;;;1.85;1.45;;;22.90;53.20;;;27.08;35.12;101566.28;5137797;27;20042;-11
2021/09/14 05:14:35;;;;;;;1.52;1.33;;;22.90;53.20;;;27.09;35.49;101565.28;5138071;27;20184;-11
2021/09/14 05:17:15;;;;;;;2.45;1.48;;;22.90;53.20;;;27.10;35.28;101567.03;5138678;27;20141;-11
2021/09/14 05:20:05;;;;;;;2.30;1.48;;;22.90;53.20;;;27.10;35.43;101563.50;5138563;27;20117;-11
2021/09/14 05:22:34;;;;;;;1.25;1.15;;;22.90;53.20;;;27.12;35.14;101564.22;5138569;27;20066;-11
2021/09/14 05:25:01;;;;;;;2.38;1.55;;;22.90;53.20;;;27.10;35.34;101564.34;5136119;27;20049;-11
2021/09/14 05:27:27;;;;;;;2.67;1.65;;;22.90;53.20;;;27.11;35.07;101560.66;5156288;27;20043;-11
2021/09/14 05:29:53;;;;;;;1.85;1.40;;;22.90;53.20;;;27.10;35.31;101550.91;5156554;27;20387;-10
2021/09/14 05:32:19;;;;;;;2.30;1.48;;;22.90;53.20;;;27.08;35.19;101547.50;5156419;27;20049;-11
2021/09/14 05:34:49;;;;;;;1.73;1.38;;;22.90;53.20;;;27.08;35.29;101541.25;5137735;27;20054;-10
2021/09/14 05:37:18;;;;;;;1.30;1.20;;;22.90;53.20;;;27.11;35.16;101547.22;5138049;27;20049;-11
2021/09/14 05:39:45;;;;;;;2.17;1.65;;;22.90;53.20;;;27.11;35.13;101543.69;5137326;27;20047;-11
2021/09/14 05:42:12;;;;;;;1.88;1.30;;;22.90;53.20;;;27.13;35.42;101547.13;5120547;27;20047;-11
2021/09/14 05:44:37;;;;;;;1.95;1.40;;;22.90;53.20;;;27.12;35.09;101540.06;5137533;27;20050;-11
2021/09/14 05:47:05;;;;;;;1.63;1.40;;;22.90;53.20;;;27.09;35.15;101542.97;5138013;27;20051;-10
2021/09/14 05:49:32;;;;;;;1.55;1.45;;;22.90;53.10;;;27.12;35.25;101540.06;5135703;27;20185;-11
2021/09/14 05:51:59;;;;;;;1.90;1.52;;;22.90;53.10;;;27.12;35.33;101540.06;5156075;27;20092;-10
2021/09/14 05:54:25;;;;;;;2.58;1.63;;;22.90;53.10;;;27.12;35.22;101542.75;5156501;27;20070;-10
2021/09/14 05:56:52;;;;;;;1.88;1.42;;;22.90;53.10;;;27.13;35.27;101545.31;5118687;27;20070;-11
2021/09/14 05:59:18;;;;;;;1.85;1.63;;;22.90;53.10;;;27.12;35.28;101543.59;5155911;27;20042;-11
2021/09/14 06:01:44;;;;;;;1.70;1.38;;;22.90;53.10;;;27.13;35.10;101544.44;5120179;27;20043;-11
2021/09/14 06:04:10;;;;;;;1.48;1.35;;;22.90;53.10;;;27.11;35.02;101547.22;5156179;27;20137;-11
2021/09/14 06:06:37;;;;;;;1.50;1.30;;;22.90;53.00;;;27.13;35.30;101555.16;5135248;27;20486;-11
2021/09/14 06:09:03;;;;;;;1.65;1.33;;;22.90;53.60;;;27.14;35.36;101556.88;5137220;27;20043;-11
2021/09/14 06:11:32;;;;;;;1.42;1.33;;;23.00;53.00;;;27.14;35.30;101562.25;5137811;27;20046;-10
2021/09/14 06:13:57;;;;;;;1.73;1.23;;;23.00;53.00;;;27.16;35.20;101557.63;5120191;27;20045;-11
2021/09/14 06:16:23;;;;;;;1.92;1.52;;;23.00;53.00;;;27.16;35.21;101555.81;5136944;27;20049;-11
2021/09/14 06:18:49;;;;;;;2.47;1.30;;;23.00;53.00;;;27.16;35.21;101550.44;5136923;27;20086;-11
2021/09/14 06:21:15;;;;;;;1.88;1.50;;;23.00;53.00;;;27.15;35.20;101545.19;5136971;27;20050;-11
2021/09/14 06:23:41;;;;;;;2.45;1.63;;;23.00;53.00;;;27.17;34.94;101554.81;5136884;27;20103;-11
2021/09/14 06:26:11;;;;;;;2.17;1.50;;;23.00;52.90;;;27.16;35.23;101550.44;5135429;27;20043;-10
2021/09/14 06:28:41;;;;;;;1.93;1.40;;;23.00;52.90;;;27.16;35.06;101550.44;5136822;27;20045;-11
2021/09/14 06:31:07;;;;;;;1.88;1.25;;;23.00;52.90;;;27.19;35.18;101557.38;5136885;27;20291;-11
2021/09/14 06:33:35;;;;;;;1.55;1.38;;;23.00;52.90;;;27.17;35.18;101554.81;5137136;27;20142;-11
2021/09/14 06:36:04;;;;;;;1.58;1.40;;;23.00;52.80;;;27.18;35.08;101551.19;5155334;27;20487;-11
2021/09/14 06:38:33;;;;;;;1.58;1.48;;;23.00;52.80;;;27.20;34.92;101552.88;5137255;27;20138;-16
2021/09/14 06:40:59;;;;;;;1.67;1.45;;;23.10;52.80;;;27.21;34.92;101554.59;5136634;27;20046;-10
2021/09/14 06:43:39;;;;;;;1.60;1.30;;;23.10;52.80;;;27.23;35.20;101552.63;5137066;27;20418;-11
2021/09/14 06:46:18;;;;;;;2.75;1.50;;;23.10;52.70;;;27.25;35.04;101556.03;5136368;27;21494;-11
2021/09/14 06:48:56;;;;;;;1.98;1.45;;;23.10;52.60;;;27.23;35.19;101550.81;5134875;27;20058;-11
2021/09/14 06:51:23;;;;;;;1.52;1.30;;;23.10;52.50;;;27.27;35.01;101554.13;5154272;27;20046;-11
2021/09/14 06:53:48;;;;;;;1.63;1.42;;;23.20;52.60;;;27.27;34.87;101559.50;5155132;27;20207;-10
2021/09/14 06:56:15;;;;;;;1.50;1.40;;;23.10;52.40;;;27.27;35.02;101551.44;5155120;27;20039;-11
2021/09/14 06:58:45;;;;;;;1.92;1.55;;;23.20;52.40;;;27.32;34.92;101557.31;5136263;27;20094;-11
2021/09/14 07:01:19;;;;;;;1.45;1.20;;;23.20;52.40;;;27.31;34.87;101551.06;5155366;27;20058;-11
2021/09/14 07:03:46;;;;;;;1.30;1.20;;;23.20;52.30;;;27.33;34.93;101551.84;5155313;27;20046;-11
2021/09/14 07:06:12;;;;;;;2.10;1.60;;;23.20;52.20;;;27.35;34.74;101557.09;5154859;27;20045;-11
2021/09/14 07:08:38;;;;;;;2.08;1.35;;;23.20;52.20;;;27.38;34.99;101562.19;5154598;27;20043;-11
2021/09/14 07:11:04;;;;;;;2.25;1.60;;;23.30;52.20;;;27.39;35.00;101560.38;5154833;27;20051;-11
2021/09/14 07:13:29;;;;;;;2.25;1.45;;;23.30;52.10;;;27.39;34.58;101560.38;5154851;27;20050;-11
2021/09/14 07:15:55;;;;;;;1.95;1.35;;;23.30;52.10;;;27.43;34.92;101561.84;5135844;27;20046;-11
2021/09/14 07:18:21;;;;;;;1.42;1.25;;;23.40;52.00;;;27.46;34.66;101564.28;5154571;27;20050;-11
2021/09/14 07:20:47;;;;;;;1.30;1.20;;;23.40;51.90;;;27.46;34.95;101554.38;5154704;27;20379;-11
2021/09/14 07:23:13;;;;;;;1.60;1.20;;;23.40;51.70;;;27.49;34.71;101553.31;5154399;27;20066;-11
2021/09/14 07:25:41;;;;;;;2.00;1.35;;;23.50;51.70;;;27.50;34.81;101542.44;5135365;27;20439;-11
2021/09/14 07:28:08;;;;;;;2.35;1.42;;;23.50;51.50;;;27.56;34.75;101551.84;5134232;27;20490;-11
2021/09/14 07:30:34;;;;;;;1.33;1.10;;;23.60;51.30;;;27.65;34.89;101553.81;5154399;27;20505;-11
2021/09/14 07:33:00;;;;;;;2.28;1.42;;;23.70;51.10;;;27.69;34.66;101546.34;5154464;27;20116;-10
2021/09/14 07:35:28;;;;;;;2.25;1.30;;;23.80;51.00;;;27.74;34.63;101549.50;5154503;27;20490;-11
2021/09/14 07:37:54;;;;;;;1.23;1.08;;;23.90;50.80;;;27.82;34.49;101544.38;5154346;27;20129;-11
2021/09/14 07:40:20;;;;;;;1.45;1.30;;;24.00;50.60;;;27.88;34.21;101538.53;5154772;27;20082;-11
2021/09/14 07:42:45;;;;;;;1.58;1.23;;;24.00;50.50;;;27.93;34.12;101540.00;5154652;27;20393;-11
2021/09/14 07:45:11;;;;;;;1.58;1.20;;;24.10;50.30;;;27.98;34.40;101538.63;5154351;27;20046;-11
2021/09/14 07:47:37;;;;;;;1.85;1.45;;;24.20;50.30;;;28.00;34.03;101534.00;5154028;27;20394;-11
2021/09/14 07:50:04;;;;;;;1.83;1.50;;;24.20;50.20;;;28.03;34.29;101536.44;5154709;27;20043;-11
2021/09/14 07:52:30;;;;;;;1.27;1.17;;;24.20;50.30;;;28.08;33.89;101536.94;5154159;27;20039;-11
2021/09/14 07:54:55;;;;;;;2.10;1.40;;;24.20;50.10;;;28.11;33.99;101535.81;5154281;27;20152;-10
2021/09/14 07:57:21;;;;;;;1.42;1.27;;;24.20;50.10;;;28.15;33.79;101533.72;5154188;27;20059;-10
2021/09/14 07:59:47;;;;;;;2.33;1.38;;;24.20;50.00;;;28.18;33.77;101530.78;5154132;27;20049;-11
2021/09/14 08:02:13;;;;;;;1.30;1.20;;;24.20;49.90;;;28.18;33.94;101534.31;5135455;27;20045;-11
2021/09/14 08:04:38;;;;;;;1.90;1.15;;;24.30;50.00;;;28.21;33.83;101539.44;5157854;27;20046;-11
2021/09/14 08:07:04;;;;;;;1.85;1.10;;;24.30;49.90;;;28.21;33.70;101542.13;5157624;27;20043;-11
2021/09/14 08:09:30;;;;;;;1.63;1.38;;;24.30;49.90;;;28.25;33.83;101540.03;5121713;27;20132;-11
2021/09/14 08:11:58;;;;;;;1.27;1.17;;;24.30;49.90;;;28.23;33.80;101536.63;5157924;27;20046;-11
2021/09/14 08:14:23;;;;;;;2.08;1.30;;;24.30;49.90;;;28.24;33.55;101535.66;5158061;27;20097;-11
2021/09/14 08:16:49;;;;;;;1.40;1.10;;;24.30;49.80;;;28.26;33.82;101544.44;5157635;27;20094;-11
2021/09/14 08:19:15;;;;;;;1.30;1.20;;;24.30;49.80;;;28.24;33.67;101539.19;5138961;27;20047;-11
2021/09/14 08:21:41;;;;;;;1.25;1.15;;;24.30;49.80;;;28.25;33.46;101545.41;5121907;27;20494;-10
2021/09/14 08:24:09;;;;;;;1.83;1.40;;;24.30;49.80;;;28.26;33.45;101547.97;5157564;27;20042;-10
2021/09/14 08:26:35;;;;;;;1.52;1.25;;;24.30;49.80;;;28.25;33.44;101543.59;5157840;27;20137;-11
2021/09/14 08:29:02;;;;;;;1.63;1.25;;;24.30;49.90;;;28.24;33.70;101536.50;5157365;27;20046;-11
2021/09/14 08:31:29;;;;;;;1.58;1.30;;;24.20;49.80;;;28.24;33.61;101544.56;5139055;27;20034;-11
2021/09/14 08:33:54;;;;;;;1.50;1.23;;;24.30;49.90;;;28.23;33.44;101540.19;5157463;27;20046;-11
2021/09/14 08:36:20;;;;;;;2.13;1.23;;;24.20;49.90;;;28.22;33.53;101541.16;5157569;27;20095;-11
2021/09/14 08:38:47;;;;;;;2.38;1.50;;;24.20;50.00;;;28.22;33.35;101533.09;5157314;27;20125;-11
2021/09/14 08:41:16;;;;;;;1.83;1.55;;;24.20;50.00;;;28.22;33.58;101537.63;5157273;27;20046;-10
2021/09/14 08:43:46;;;;;;;1.40;1.30;;;24.20;50.00;;;28.19;33.69;101536.03;5157143;27;20096;-11
2021/09/14 08:46:15;;;;;;;1.45;1.35;;;24.20;50.10;;;28.19;33.75;101533.34;5157256;27;20107;-11
2021/09/14 08:48:41;;;;;;;2.22;1.20;;;24.10;50.20;;;28.18;33.54;101541.53;5157082;27;20054;-11
2021/09/14 08:51:08;;;;;;;3.42;1.50;;;24.10;50.10;;;28.15;33.29;101539.09;5157406;27;20443;-11
2021/09/14 08:53:34;;;;;;;1.70;1.35;;;24.10;50.20;;;28.13;33.46;101544.59;5138340;27;20043;-11
2021/09/14 08:56:06;;;;;;;1.60;1.30;;;24.10;50.30;;;28.12;33.47;101539.34;5157090;27;20141;-10
2021/09/14 08:58:33;;;;;;;1.77;1.48;;;24.10;50.30;;;28.12;33.53;101544.72;5138454;27;20042;-11
2021/09/14 09:00:59;;;;;;;1.55;0.98;;;24.10;50.80;;;28.09;33.52;101541.31;5156963;27;20138;-11
2021/09/14 09:03:29;;;;;;;1.48;1.15;;;24.10;50.40;;;28.08;33.44;101542.31;5156500;27;20058;-11
2021/09/14 09:05:58;;;;;;;1.88;1.23;;;24.10;50.90;;;28.06;33.67;101549.63;5156476;27;20051;-11
2021/09/14 09:08:30;;;;;;;1.58;1.00;;;24.00;50.40;;;28.05;33.57;101550.63;5156045;27;20413;-11
2021/09/14 09:11:10;;;;;;;2.55;1.40;;;24.00;50.50;;;28.04;33.68;101540.81;5156852;27;20059;-10
2021/09/14 09:13:46;;;;;;;1.17;0.98;;;24.00;50.60;;;28.04;33.83;101543.53;5157070;27;20389;-11
2021/09/14 09:16:28;;;;;;;1.52;1.33;;;23.90;50.60;;;28.03;33.71;101536.44;5155997;27;20039;-21
2021/09/14 09:19:00;;;;;;;1.48;1.20;;;23.90;50.60;;;28.02;33.81;101526.66;5156630;27;20054;-11
2021/09/14 09:21:38;;;;;;;1.70;1.42;;;23.90;50.80;;;28.00;33.45;101528.63;5156460;27;20039;-10
2021/09/14 09:24:09;;;;;;;1.23;1.13;;;23.80;50.80;;;28.01;33.47;101532.16;5138166;27;20074;-11
2021/09/14 09:26:44;;;;;;;3.05;1.70;;;23.80;50.90;;;27.97;33.89;101530.72;5156766;27;20094;-10
2021/09/14 09:29:17;;;;;;;1.30;1.20;;;23.80;50.80;;;27.97;33.65;101534.25;5156565;27;20402;-11
2021/09/14 09:31:47;;;;;;;1.73;1.30;;;23.80;50.90;;;27.98;33.76;101532.41;5156308;27;20043;-11
2021/09/14 09:34:13;;;;;;;1.42;1.33;;;23.90;50.80;;;27.98;33.88;101532.41;5156459;27;20038;-11
2021/09/14 09:36:42;;;;;;;1.20;1.08;;;23.80;50.80;;;27.98;33.89;101537.78;5156486;27;20418;-11
2021/09/14 09:39:13;;;;;;;1.92;1.20;;;23.80;50.80;;;27.97;33.65;101541.47;5135699;27;20047;-11
2021/09/14 09:41:51;;;;;;;1.93;1.57;;;23.90;50.90;;;27.97;33.87;101538.78;5138069;27;20046;-10
2021/09/14 09:44:16;;;;;;;1.45;1.30;;;23.80;50.80;;;27.99;33.78;101539.50;5156884;27;20276;-10
2021/09/14 09:46:42;;;;;;;2.00;1.20;;;23.80;50.90;;;27.98;33.50;101532.41;5156647;27;20102;-11
2021/09/14 09:49:09;;;;;;;1.50;1.00;;;23.90;50.90;;;27.94;33.91;101529.13;5156456;27;20103;-10
2021/09/14 09:51:37;;;;;;;1.35;1.20;;;23.80;50.80;;;27.97;33.85;101545.00;5156347;27;20062;-10
2021/09/14 09:54:04;;;;;;;1.05;1.05;;;23.90;50.80;;;27.95;33.54;101538.03;5156257;27;20046;-10
2021/09/14 09:56:33;;;;;;;1.55;1.30;;;23.90;50.70;;;27.97;33.84;101539.63;5156393;27;20533;-11
2021/09/14 09:59:02;;;;;;;2.65;1.58;;;23.90;50.70;;;27.96;33.80;101534.38;5155931;27;20053;-11
2021/09/14 10:01:28;;;;;;;2.03;1.20;;;23.90;50.70;;;27.95;33.67;101529.97;5156037;27;20137;-10
2021/09/14 10:04:09;;;;;;;1.73;1.20;;;23.90;50.60;;;27.93;33.75;101522.03;5137699;27;20047;-10
2021/09/14 10:06:42;;;;;;;1.10;1.00;;;23.90;50.70;;;27.94;33.66;101523.75;5137294;27;20057;-10
2021/09/14 10:09:08;;;;;;;2.08;1.33;;;23.90;50.90;;;27.95;33.85;101516.53;5155590;27;20049;-11
2021/09/14 10:11:36;;;;;;;1.00;0.95;;;23.90;50.50;;;27.98;33.74;101518.97;5137527;27;20042;-10
2021/09/14 10:14:15;;;;;;;1.63;1.20;;;24.00;50.50;;;27.95;33.73;101514.72;5137480;27;20051;-11
2021/09/14 10:16:46;;;;;;;1.48;1.30;;;23.90;50.50;;;27.95;33.76;101508.47;5155853;27;20042;-11
2021/09/14 10:19:15;;;;;;;1.73;1.42;;;24.00;50.60;;;27.99;33.82;101509.94;5155486;27;20081;-11
2021/09/14 10:21:59;;;;;;;1.35;1.17;;;23.90;50.50;;;27.95;33.86;101503.97;5155527;27;20529;-11
2021/09/14 10:24:26;;;;;;;1.90;1.35;;;24.00;50.50;;;27.99;33.51;101502.72;5119639;27;20039;-11
2021/09/14 10:27:09;;;;;;;1.27;1.15;;;24.00;50.50;;;27.98;33.69;101497.47;5154110;27;20478;-11
2021/09/14 10:29:36;;;;;;;3.03;1.40;;;24.00;50.50;;;27.95;33.86;101495.03;5155402;27;20058;-11
2021/09/14 10:32:12;;;;;;;1.85;1.45;;;24.00;50.50;;;27.94;33.81;101494.19;5155469;27;20077;-11
2021/09/14 10:34:51;;;;;;;1.80;1.35;;;24.00;50.50;;;27.95;33.59;101495.03;5155693;27;20066;-11
2021/09/14 10:37:17;;;;;;;1.83;1.20;;;23.90;50.50;;;27.99;33.53;101501.88;5119728;27;20054;-11
2021/09/14 10:39:44;;;;;;;1.20;1.10;;;23.90;50.50;;;27.98;33.62;101501.00;5154801;27;20478;-11
2021/09/14 10:42:19;;;;;;;1.30;1.20;;;24.00;50.50;;;27.94;34.00;101496.88;5154892;27;20062;-11
2021/09/14 10:44:47;;;;;;;1.30;1.20;;;24.00;50.50;;;27.95;33.96;101495.91;5155191;27;20076;-11
2021/09/14 10:47:19;;;;;;;1.52;1.00;;;23.90;50.50;;;27.97;33.91;101499.31;5155167;27;20379;-11
2021/09/14 10:49:57;;;;;;;1.90;1.27;;;24.00;50.60;;;27.94;33.93;101496.88;5136340;27;20047;-11
2021/09/14 10:52:38;;;;;;;1.30;1.17;;;23.90;50.50;;;27.97;33.65;101501.16;5155727;27;20046;-11
2021/09/14 10:55:07;;;;;;;1.60;1.20;;;24.00;50.50;;;27.98;33.55;101497.47;5155249;27;20054;-11
2021/09/14 10:57:49;;;;;;;2.63;1.50;;;23.90;50.50;;;27.95;33.73;101498.59;5134617;27;20092;-11
2021/09/14 11:00:26;;;;;;;1.10;1.00;;;23.90;50.60;;;27.98;33.94;101497.47;5155160;27;20045;-11
2021/09/14 11:03:04;;;;;;;1.85;1.48;;;23.90;50.60;;;27.97;33.68;101503.84;5154959;27;20490;-11
2021/09/14 11:05:35;;;;;;;1.48;0.98;;;23.90;50.50;;;27.98;33.74;101502.84;5155239;27;20043;-11
2021/09/14 11:08:10;;;;;;;1.55;1.08;;;24.00;50.50;;;27.98;33.54;101492.94;5154725;27;20046;-12